Time;durP1;ratioP1;P1;durP2;ratioP2;P2;SDS_P1;SDS_P2;PMS_P1;PMS_P2;Temp;Humidity;BMP_temperature;BMP_pressure;BME280_temperature;BME280_humidity;BME280_pressure;Samples;Min_cycle;Max_cycle;Signal;HPM_P1;HPM_P2
2023/04/19 00:01:06;;;;;;;;;;;;;;;11.47;63.66;98699.50;4468835;32;20322;-65
2023/04/19 00:03:33;;;;;;;;;;;;;;;11.44;64.07;98691.94;4468654;32;20060;-65
2023/04/19 00:06:01;;;;;;;;;;;;;;;11.40;64.33;98685.34;4468732;32;20055;-65
2023/04/19 00:08:28;;;;;;;;;;;;;;;11.34;64.92;98691.16;4468587;32;20031;-65
2023/04/19 00:10:56;;;;;;;;;;;;;;;11.29;64.89;98685.50;4468960;32;20050;-65
2023/04/19 00:13:23;;;;;;;;;;;;;;;11.30;64.64;98677.50;4452978;32;20287;-65
2023/04/19 00:15:51;;;;;;;;;;;;;;;11.33;63.86;98684.25;4466240;32;20376;-65
2023/04/19 00:18:18;;;;;;;;;;;;;;;11.31;64.91;98678.31;4468197;32;20341;-65
2023/04/19 00:20:47;;;;;;;;;;;;;;;11.30;65.76;98672.25;4468532;32;20365;-65
2023/04/19 00:23:14;;;;;;;;;;;;;;;11.33;64.68;98676.38;4469350;32;19980;-65
2023/04/19 00:25:42;;;;;;;;;;;;;;;11.29;64.79;98677.63;4470833;32;20022;-65
2023/04/19 00:28:09;;;;;;;;;;;;;;;11.30;64.26;98677.50;4470583;32;20472;-65
2023/04/19 00:30:36;;;;;;;;;;;;;;;11.31;64.04;98673.06;4470558;32;20051;-65
2023/04/19 00:33:04;;;;;;;;;;;;;;;11.33;66.06;98671.16;4470901;32;20007;-65
2023/04/19 00:35:31;;;;;;;;;;;;;;;11.21;67.82;98667.06;4470532;32;20003;-65
2023/04/19 00:37:58;;;;;;;;;;;;;;;11.16;68.73;98664.88;4470565;32;19994;-65
2023/04/19 00:40:26;;;;;;;;;;;;;;;11.03;68.61;98670.41;4470450;32;19968;-65
2023/04/19 00:42:53;;;;;;;;;;;;;;;11.03;69.26;98661.72;4470569;32;19980;-65
2023/04/19 00:45:20;;;;;;;;;;;;;;;11.02;69.15;98660.88;4470392;32;19988;-65
2023/04/19 00:47:49;;;;;;;;;;;;;;;10.96;69.24;98659.69;4470334;32;19968;-65
2023/04/19 00:50:18;;;;;;;;;;;;;;;10.92;68.82;98660.09;4469105;32;19984;-65
2023/04/19 00:52:45;;;;;;;;;;;;;;;10.83;70.10;98662.59;4469288;32;20359;-65
2023/04/19 00:55:12;;;;;;;;;;;;;;;10.76;70.16;98648.41;4470304;32;19984;-65
2023/04/19 00:57:40;;;;;;;;;;;;;;;10.71;70.50;98649.81;4469186;32;19995;-65
2023/04/19 01:00:08;;;;;;;;;;;;;;;10.73;70.52;98648.69;4470472;32;20000;-65
2023/04/19 01:02:36;;;;;;;;;;;;;;;10.67;71.64;98651.87;4470488;32;19980;-65
2023/04/19 01:05:04;;;;;;;;;;;;;;;10.59;72.23;98644.72;4470380;32;19984;-65
2023/04/19 01:07:32;;;;;;;;;;;;;;;10.50;72.91;98640.31;4470216;32;19991;-65
2023/04/19 01:10:00;;;;;;;;;;;;;;;10.44;73.89;98641.69;4470370;32;19976;-65
2023/04/19 01:12:27;;;;;;;;;;;;;;;10.36;74.22;98632.91;4470400;32;20023;-65
2023/04/19 01:14:54;;;;;;;;;;;;;;;10.35;74.70;98642.53;4470155;32;20002;-65
2023/04/19 01:17:22;;;;;;;;;;;;;;;10.33;75.20;98630.53;4470136;32;20348;-65
2023/04/19 01:19:49;;;;;;;;;;;;;;;10.33;76.04;98631.38;4470435;32;19981;-65
2023/04/19 01:22:20;;;;;;;;;;;;;;;10.28;76.87;98625.72;4470667;32;19972;-65
2023/04/19 01:24:47;;;;;;;;;;;;;;;10.26;77.45;98632.84;4470497;32;20326;-65
2023/04/19 01:27:16;;;;;;;;;;;;;;;10.30;77.04;98627.19;4470295;32;20051;-65
2023/04/19 01:29:43;;;;;;;;;;;;;;;10.26;77.24;98627.63;4470347;32;19991;-65
2023/04/19 01:32:12;;;;;;;;;;;;;;;10.26;77.34;98619.75;4470329;32;19983;-65
2023/04/19 01:34:40;;;;;;;;;;;;;;;10.24;78.00;98619.91;4469568;32;20330;-65
2023/04/19 01:37:08;;;;;;;;;;;;;;;10.24;78.66;98614.66;4470261;32;19980;-65
2023/04/19 01:39:36;;;;;;;;;;;;;;;10.23;79.39;98606.94;4470133;32;19995;-65
2023/04/19 01:42:03;;;;;;;;;;;;;;;10.18;80.61;98610.00;4470199;32;20306;-65
2023/04/19 01:44:30;;;;;;;;;;;;;;;10.13;81.86;98612.22;4470122;32;19995;-65
2023/04/19 01:46:59;;;;;;;;;;;;;;;10.07;83.51;98610.16;4470306;32;19992;-65
2023/04/19 01:49:26;;;;;;;;;;;;;;;10.02;84.72;98610.56;4470293;32;19992;-65
2023/04/19 01:51:53;;;;;;;;;;;;;;;9.99;85.53;98605.56;4470194;32;20017;-65
2023/04/19 01:54:21;;;;;;;;;;;;;;;9.92;86.06;98605.31;4470390;32;19998;-65
2023/04/19 01:56:48;;;;;;;;;;;;;;;9.90;87.18;98607.25;4470328;32;19984;-65
2023/04/19 01:59:16;;;;;;;;;;;;;;;9.85;89.29;98606.81;4470273;32;19980;-65
2023/04/19 02:01:43;;;;;;;;;;;;;;;9.85;90.97;98606.00;4470196;32;19996;-65
2023/04/19 02:04:11;;;;;;;;;;;;;;;9.77;93.30;98604.88;4470013;32;19979;-65
2023/04/19 02:06:38;;;;;;;;;;;;;;;9.77;95.25;98597.03;4469943;32;20022;-65
2023/04/19 02:09:07;;;;;;;;;;;;;;;9.80;95.35;98592.50;4470025;32;19975;-65
2023/04/19 02:11:40;;;;;;;;;;;;;;;9.81;94.47;98591.53;4470000;32;19988;-65
2023/04/19 02:14:07;;;;;;;;;;;;;;;9.81;94.95;98591.53;4470160;32;19992;-65
2023/04/19 02:16:35;;;;;;;;;;;;;;;9.81;95.08;98591.53;4469597;32;19976;-65
2023/04/19 02:19:03;;;;;;;;;;;;;;;9.81;96.34;98594.97;4470131;32;19987;-65
2023/04/19 02:21:32;;;;;;;;;;;;;;;9.80;97.46;98590.69;4470288;32;19988;-65
2023/04/19 02:23:59;;;;;;;;;;;;;;;9.82;98.77;98588.75;4470098;32;19976;-65
2023/04/19 02:26:27;;;;;;;;;;;;;;;9.88;100.00;98592.63;4470032;32;19984;-65
2023/04/19 02:28:54;;;;;;;;;;;;;;;9.86;98.34;98589.34;4469838;32;20569;-65
2023/04/19 02:31:22;;;;;;;;;;;;;;;9.92;96.60;98589.59;4469697;32;20031;-65
2023/04/19 02:33:49;;;;;;;;;;;;;;;9.95;95.52;98580.66;4469816;32;19980;-65
2023/04/19 02:36:17;;;;;;;;;;;;;;;9.93;94.56;98579.94;4469712;32;19976;-65
2023/04/19 02:38:44;;;;;;;;;;;;;;;9.99;94.10;98570.72;4469877;32;19988;-65
2023/04/19 02:41:12;;;;;;;;;;;;;;;9.98;91.72;98569.91;4469909;32;19981;-65
2023/04/19 02:43:39;;;;;;;;;;;;;;;9.98;91.79;98564.69;4469921;32;19998;-65
2023/04/19 02:46:06;;;;;;;;;;;;;;;9.92;91.70;98565.25;4468917;32;19990;-65
2023/04/19 02:48:34;;;;;;;;;;;;;;;9.92;89.36;98555.59;4469532;32;19999;-65
2023/04/19 02:51:02;;;;;;;;;;;;;;;9.92;87.49;98552.97;4470117;32;20063;-65
2023/04/19 02:53:29;;;;;;;;;;;;;;;9.94;84.99;98560.69;4470084;32;19984;-65
2023/04/19 02:55:57;;;;;;;;;;;;;;;9.96;83.16;98556.12;4469574;32;20330;-65
2023/04/19 02:58:25;;;;;;;;;;;;;;;9.98;81.52;98551.59;4469992;32;20326;-65
2023/04/19 03:00:53;;;;;;;;;;;;;;;9.97;80.27;98555.16;4469975;32;20016;-65
2023/04/19 03:03:20;;;;;;;;;;;;;;;10.01;79.86;98546.09;4469628;32;19980;-65
2023/04/19 03:05:48;;;;;;;;;;;;;;;9.99;80.19;98541.94;4469747;32;19977;-65
2023/04/19 03:08:15;;;;;;;;;;;;;;;9.93;81.13;98543.31;4469376;32;20037;-65
2023/04/19 03:10:43;;;;;;;;;;;;;;;9.93;81.25;98543.31;4469855;32;20035;-65
2023/04/19 03:13:10;;;;;;;;;;;;;;;9.88;82.73;98541.12;4469429;32;19995;-65
2023/04/19 03:15:37;;;;;;;;;;;;;;;9.72;85.42;98533.84;4469282;32;19980;-65
2023/04/19 03:18:05;;;;;;;;;;;;;;;9.64;86.11;98538.09;4469326;32;20032;-65
2023/04/19 03:20:33;;;;;;;;;;;;;;;9.63;84.18;98542.50;4469670;32;19990;-65
2023/04/19 03:23:00;;;;;;;;;;;;;;;9.65;84.82;98529.28;4469461;32;19992;-65
2023/04/19 03:25:27;;;;;;;;;;;;;;;9.57;84.56;98537.81;4469714;32;20624;-65
2023/04/19 03:27:55;;;;;;;;;;;;;;;9.54;83.83;98522.41;4469538;32;20425;-65
2023/04/19 03:30:24;;;;;;;;;;;;;;;9.58;82.59;98521.16;4469538;32;20059;-65
2023/04/19 03:32:52;;;;;;;;;;;;;;;9.61;81.14;98528.72;4469441;32;19989;-65
2023/04/19 03:35:21;;;;;;;;;;;;;;;9.54;81.89;98525.84;4469377;32;19976;-65
2023/04/19 03:37:49;;;;;;;;;;;;;;;9.56;82.04;98525.69;4469244;32;19980;-65
2023/04/19 03:40:16;;;;;;;;;;;;;;;9.55;80.60;98529.28;4469442;32;19980;-65
2023/04/19 03:42:44;;;;;;;;;;;;;;;9.61;79.14;98527.91;4469317;32;19998;-65
2023/04/19 03:45:11;;;;;;;;;;;;;;;9.69;79.59;98528.88;4469233;32;20377;-65
2023/04/19 03:47:39;;;;;;;;;;;;;;;9.66;79.40;98523.94;4469075;32;19973;-65
2023/04/19 03:50:07;;;;;;;;;;;;;;;9.67;80.87;98517.72;4469245;32;20305;-65
2023/04/19 03:52:35;;;;;;;;;;;;;;;9.63;80.98;98518.12;4469143;32;20308;-65
2023/04/19 03:55:02;;;;;;;;;;;;;;;9.61;81.37;98523.50;4469248;32;20348;-65
2023/04/19 03:57:30;;;;;;;;;;;;;;;9.61;82.25;98518.25;4469041;32;20025;-65
2023/04/19 03:59:58;;;;;;;;;;;;;;;9.53;82.06;98520.75;4471240;32;20006;-65
2023/04/19 04:02:26;;;;;;;;;;;;;;;9.51;81.41;98526.12;4471046;32;20491;-65
2023/04/19 04:04:54;;;;;;;;;;;;;;;9.53;80.09;98525.97;4470864;32;19984;-65
2023/04/19 04:07:22;;;;;;;;;;;;;;;9.59;77.77;98520.19;4470889;32;19983;-65
2023/04/19 04:09:50;;;;;;;;;;;;;;;9.64;76.92;98518.00;4470968;32;20487;-65
2023/04/19 04:12:17;;;;;;;;;;;;;;;9.72;75.99;98517.28;4470598;32;20024;-65
2023/04/19 04:14:45;;;;;;;;;;;;;;;9.79;74.26;98514.97;4471085;32;19999;-65
2023/04/19 04:17:14;;;;;;;;;;;;;;;9.88;72.63;98519.38;4469950;32;20363;-65
2023/04/19 04:19:41;;;;;;;;;;;;;;;9.97;71.52;98512.47;4470759;32;19984;-65
2023/04/19 04:22:09;;;;;;;;;;;;;;;10.05;70.88;98509.97;4469789;32;19996;-65
2023/04/19 04:24:40;;;;;;;;;;;;;;;10.08;70.36;98522.78;4469988;32;19979;-65
2023/04/19 04:27:10;;;;;;;;;;;;;;;10.11;70.64;98519.88;4470411;32;19972;-65
2023/04/19 04:29:38;;;;;;;;;;;;;;;10.13;71.28;98515.34;4470278;32;20033;-65
2023/04/19 04:32:09;;;;;;;;;;;;;;;10.15;72.03;98520.44;4469950;32;19979;-65
2023/04/19 04:34:37;;;;;;;;;;;;;;;10.21;71.00;98517.28;4469340;32;20002;-65
2023/04/19 04:37:07;;;;;;;;;;;;;;;10.27;70.23;98519.31;4468266;32;19999;-65
2023/04/19 04:39:38;;;;;;;;;;;;;;;10.33;70.27;98510.94;4468179;32;19998;-65
2023/04/19 04:42:09;;;;;;;;;;;;;;;10.38;70.72;98520.97;4468729;32;20014;-65
2023/04/19 04:44:37;;;;;;;;;;;;;;;10.44;71.08;98521.22;4469140;32;20445;-65
2023/04/19 04:47:05;;;;;;;;;;;;;;;10.48;70.90;98511.31;4468900;32;19987;-66
2023/04/19 04:49:33;;;;;;;;;;;;;;;10.54;70.38;98520.41;4469033;32;20133;-65
2023/04/19 04:52:00;;;;;;;;;;;;;;;10.67;69.62;98513.00;4470076;32;20002;-65
2023/04/19 04:54:29;;;;;;;;;;;;;;;10.76;70.15;98512.13;4469986;32;19984;-65
2023/04/19 04:56:57;;;;;;;;;;;;;;;10.80;69.15;98510.88;4468106;32;19972;-65
2023/04/19 04:59:25;;;;;;;;;;;;;;;10.89;70.30;98516.25;4470585;32;20059;-65
2023/04/19 05:01:53;;;;;;;;;;;;;;;10.96;68.77;98502.41;4466974;32;19988;-65
2023/04/19 05:04:21;;;;;;;;;;;;;;;11.08;68.01;98508.28;4466433;32;20470;-65
2023/04/19 05:06:48;;;;;;;;;;;;;;;11.03;67.67;98505.25;4469329;32;20542;-65
2023/04/19 05:09:17;;;;;;;;;;;;;;;10.98;68.78;98507.50;4467219;32;20262;-65
2023/04/19 05:11:44;;;;;;;;;;;;;;;11.02;68.16;98503.59;4469440;32;20330;-65
2023/04/19 05:14:12;;;;;;;;;;;;;;;11.10;68.94;98508.97;4460684;32;83000;-65
2023/04/19 05:16:39;;;;;;;;;;;;;;;11.10;70.09;98501.09;4463183;32;20025;-65
2023/04/19 05:19:07;;;;;;;;;;;;;;;11.13;70.42;98505.22;4468701;32;20323;-66
2023/04/19 05:21:35;;;;;;;;;;;;;;;11.16;68.69;98494.44;4470722;32;20029;-66
2023/04/19 05:24:03;;;;;;;;;;;;;;;11.19;68.32;98505.44;4470865;32;19976;-66
2023/04/19 05:26:32;;;;;;;;;;;;;;;11.45;67.44;98501.28;4470366;32;19980;-66
2023/04/19 05:29:00;;;;;;;;;;;;;;;11.62;65.59;98500.44;4469439;32;20322;-66
2023/04/19 05:31:30;;;;;;;;;;;;;;;11.86;62.61;98510.34;4467655;32;20003;-66
2023/04/19 05:33:59;;;;;;;;;;;;;;;12.09;61.46;98503.81;4468419;32;20059;-63
2023/04/19 05:36:27;;;;;;;;;;;;;;;12.18;60.93;98506.34;4468497;32;20051;-66
2023/04/19 05:38:54;;;;;;;;;;;;;;;12.29;60.37;98501.81;4461579;32;19988;-66
2023/04/19 05:41:22;;;;;;;;;;;;;;;12.45;59.44;98496.66;4461038;32;20060;-65
2023/04/19 05:43:49;;;;;;;;;;;;;;;12.63;60.71;98499.22;4463440;32;19976;-66
2023/04/19 05:46:18;;;;;;;;;;;;;;;12.69;61.04;98495.16;4466177;32;20025;-66
2023/04/19 05:48:45;;;;;;;;;;;;;;;12.83;61.55;98505.03;4465593;32;20000;-66
2023/04/19 05:51:19;;;;;;;;;;;;;;;12.95;60.29;98502.97;4465998;32;19984;-66
2023/04/19 05:53:48;;;;;;;;;;;;;;;13.14;60.75;98504.47;4463778;32;19988;-66
2023/04/19 05:56:15;;;;;;;;;;;;;;;12.93;66.79;98511.00;4465181;32;20307;-65
2023/04/19 05:58:43;;;;;;;;;;;;;;;12.52;72.70;98509.97;4464152;32;20033;-66
2023/04/19 06:01:10;;;;;;;;;;;;;;;12.27;74.23;98509.84;4465475;32;21952;-65
2023/04/19 06:03:38;;;;;;;;;;;;;;;12.34;77.74;98510.03;4459093;32;20761;-66
2023/04/19 06:06:06;;;;;;;;;;;;;;;12.10;80.04;98503.66;4465733;32;20036;-65
2023/04/19 06:08:34;;;;;;;;;;;;;;;12.06;83.12;98502.31;4464943;32;20012;-66
2023/04/19 06:11:01;;;;;;;;;;;;;;;11.97;80.99;98501.41;4464130;32;20055;-66
2023/04/19 06:13:50;;;;;;;;;;;;;;;12.28;81.46;98497.53;4461643;32;19998;-66
2023/04/19 06:16:18;;;;;;;;;;;;;;;12.50;72.93;98497.00;4464640;32;19972;-66
2023/04/19 06:18:45;;;;;;;;;;;;;;;12.52;70.11;98489.81;4466900;32;19984;-67
2023/04/19 06:21:12;;;;;;;;;;;;;;;12.86;68.39;98494.22;4466279;32;20499;-66
2023/04/19 06:23:40;;;;;;;;;;;;;;;13.21;68.33;98497.59;4467846;32;20008;-66
2023/04/19 06:26:07;;;;;;;;;;;;;;;13.53;63.71;98487.34;4464493;32;19999;-67
2023/04/19 06:28:34;;;;;;;;;;;;;;;13.69;61.26;98482.09;4467805;32;19994;-66
2023/04/19 06:31:02;;;;;;;;;;;;;;;14.04;58.24;98487.19;4465064;32;19999;-67
2023/04/19 06:33:29;;;;;;;;;;;;;;;14.00;57.89;98487.53;4463876;32;20494;-67
2023/04/19 06:35:56;;;;;;;;;;;;;;;14.11;57.78;98488.16;4466891;32;19984;-67
2023/04/19 06:38:24;;;;;;;;;;;;;;;14.18;59.91;98497.03;4466873;32;20039;-68
2023/04/19 06:40:51;;;;;;;;;;;;;;;13.89;57.40;98487.03;4465329;32;19995;-67
2023/04/19 06:43:18;;;;;;;;;;;;;;;13.88;57.79;98499.34;4467035;32;20404;-67
2023/04/19 06:45:46;;;;;;;;;;;;;;;14.14;56.94;98483.38;4463976;32;19990;-67
2023/04/19 06:48:14;;;;;;;;;;;;;;;14.30;56.43;98477.25;4467606;32;20042;-68
2023/04/19 06:50:41;;;;;;;;;;;;;;;14.46;55.81;98484.31;4464681;32;19995;-68
2023/04/19 06:53:08;;;;;;;;;;;;;;;14.68;53.14;98484.59;4465458;32;20078;-68
2023/04/19 06:55:35;;;;;;;;;;;;;;;14.71;52.39;98489.53;4465418;32;19975;-66
2023/04/19 06:58:03;;;;;;;;;;;;;;;14.58;55.84;98479.50;4465259;32;20010;-68
2023/04/19 07:00:31;;;;;;;;;;;;;;;14.60;53.52;98479.34;4464194;32;20888;-67
2023/04/19 07:02:59;;;;;;;;;;;;;;;14.75;54.73;98479.44;4466045;31;19994;-65
2023/04/19 07:05:26;;;;;;;;;;;;;;;14.67;52.72;98483.78;4463622;32;19972;-67
2023/04/19 07:07:54;;;;;;;;;;;;;;;14.97;52.88;98478.69;4465641;32;20047;-67
2023/04/19 07:10:21;;;;;;;;;;;;;;;15.21;50.57;98479.56;4465983;32;19996;-67
2023/04/19 07:12:48;;;;;;;;;;;;;;;15.26;59.09;98482.50;4464435;32;19972;-68
2023/04/19 07:15:19;;;;;;;;;;;;;;;15.19;64.99;98479.75;4464252;32;20003;-67
2023/04/19 07:17:46;;;;;;;;;;;;;;;14.92;67.87;98480.22;4463225;32;20012;-68
2023/04/19 07:20:13;;;;;;;;;;;;;;;14.87;67.57;98484.19;4464108;32;19984;-67
2023/04/19 07:22:40;;;;;;;;;;;;;;;14.15;69.13;98492.09;4466693;32;20015;-65
2023/04/19 07:25:08;;;;;;;;;;;;;;;13.91;73.51;98482.41;4465603;32;19998;-66
2023/04/19 07:27:35;;;;;;;;;;;;;;;13.97;78.76;98477.31;4464318;32;19988;-66
2023/04/19 07:30:03;;;;;;;;;;;;;;;13.92;84.03;98484.87;4465014;32;20044;-67
2023/04/19 07:32:30;;;;;;;;;;;;;;;13.89;87.40;98495.75;4461788;32;20017;-67
2023/04/19 07:34:57;;;;;;;;;;;;;;;13.80;87.35;98489.66;4464302;32;20008;-67
2023/04/19 07:37:25;;;;;;;;;;;;;;;13.81;81.82;98485.22;4466083;32;20333;-67
2023/04/19 07:39:52;;;;;;;;;;;;;;;13.58;82.86;98480.62;4464872;32;20051;-67
2023/04/19 07:42:20;;;;;;;;;;;;;;;13.87;78.24;98474.03;4462617;32;20375;-67
2023/04/19 07:44:47;;;;;;;;;;;;;;;13.99;75.38;98483.25;4464032;32;19995;-67
2023/04/19 07:47:14;;;;;;;;;;;;;;;14.06;73.58;98478.13;4462917;32;20721;-67
2023/04/19 07:49:43;;;;;;;;;;;;;;;14.34;74.71;98477.75;4462884;32;20032;-67
2023/04/19 07:52:10;;;;;;;;;;;;;;;14.46;72.61;98478.19;4465119;32;19999;-67
2023/04/19 07:54:38;;;;;;;;;;;;;;;14.62;71.74;98485.28;4463672;32;20047;-65
2023/04/19 07:57:05;;;;;;;;;;;;;;;14.58;73.75;98478.66;4453764;32;20516;-65
2023/04/19 07:59:33;;;;;;;;;;;;;;;14.97;68.52;98483.16;4464709;32;20015;-66
2023/04/19 08:02:00;;;;;;;;;;;;;;;15.17;68.53;98479.09;4463403;32;20478;-66
2023/04/19 08:04:28;;;;;;;;;;;;;;;14.98;70.49;98484.81;4461749;32;21763;-67
2023/04/19 08:06:55;;;;;;;;;;;;;;;15.25;65.60;98480.88;4458962;32;20049;-66
2023/04/19 08:09:23;;;;;;;;;;;;;;;15.37;54.13;98481.28;4464833;32;20018;-65
2023/04/19 08:11:52;;;;;;;;;;;;;;;15.43;53.78;98478.75;4465704;32;19994;-66
2023/04/19 08:14:19;;;;;;;;;;;;;;;15.44;58.79;98475.13;4461898;32;19984;-64
2023/04/19 08:17:04;;;;;;;;;;;;;;;15.34;59.66;98473.72;4464162;32;20047;-66
2023/04/19 08:19:51;;;;;;;;;;;;;;;15.18;62.59;98474.63;4464335;32;20034;-67
2023/04/19 08:22:20;;;;;;;;;;;;;;;15.05;64.23;98478.66;4465725;32;19973;-65
2023/04/19 08:24:50;;;;;;;;;;;;;;;14.94;67.05;98468.47;4466605;32;19996;-65
2023/04/19 08:27:18;;;;;;;;;;;;;;;15.42;70.44;98471.84;4467914;32;19999;-64
2023/04/19 08:29:46;;;;;;;;;;;;;;;15.54;66.54;98471.44;4464728;32;19980;-64
2023/04/19 08:32:13;;;;;;;;;;;;;;;15.76;65.38;98473.25;4466749;32;19984;-66
2023/04/19 08:34:40;;;;;;;;;;;;;;;15.81;66.82;98470.09;4459461;32;19990;-68
2023/04/19 08:37:08;;;;;;;;;;;;;;;15.75;64.85;98466.31;4462307;32;20289;-66
2023/04/19 08:39:36;;;;;;;;;;;;;;;15.51;66.48;98474.44;4464115;32;20009;-66
2023/04/19 08:42:07;;;;;;;;;;;;;;;15.35;65.70;98470.06;4461792;32;20021;-67
2023/04/19 08:44:56;;;;;;;;;;;;;;;15.61;66.48;98475.03;4466241;32;20048;-64
2023/04/19 08:47:44;;;;;;;;;;;;;;;15.89;63.26;98469.22;4466218;32;20602;-65
2023/04/19 08:50:27;;;;;;;;;;;;;;;15.70;59.69;98463.41;4468890;32;20007;-66
2023/04/19 08:53:07;;;;;;;;;;;;;;;15.62;61.03;98468.72;4469861;32;20048;-67
2023/04/19 08:55:57;;;;;;;;;;;;;;;15.53;65.74;98467.97;4466101;32;20059;-65
2023/04/19 08:58:41;;;;;;;;;;;;;;;15.41;64.77;98464.94;4460792;32;19980;-65
2023/04/19 09:01:11;;;;;;;;;;;;;;;15.40;66.64;98460.63;4463878;32;20453;-66
2023/04/19 09:03:56;;;;;;;;;;;;;;;15.30;66.82;98462.69;4466682;32;19980;-65
2023/04/19 09:06:36;;;;;;;;;;;;;;;15.36;70.84;98448.78;4467770;32;20047;-66
2023/04/19 09:09:14;;;;;;;;;;;;;;;15.28;71.52;98448.84;4464646;32;20000;-64
2023/04/19 09:12:00;;;;;;;;;;;;;;;15.31;71.65;98456.41;4464065;32;20648;-66
2023/04/19 09:14:27;;;;;;;;;;;;;;;15.36;68.27;98455.88;4464763;32;19984;-65
2023/04/19 09:17:11;;;;;;;;;;;;;;;15.57;67.94;98448.13;4463530;32;20297;-65
2023/04/19 09:19:46;;;;;;;;;;;;;;;15.47;65.54;98446.72;4464097;32;19981;-66
2023/04/19 09:22:14;;;;;;;;;;;;;;;15.43;66.92;98446.28;4467897;32;19977;-66
2023/04/19 09:24:41;;;;;;;;;;;;;;;15.57;69.21;98447.31;4466393;32;20361;-66
2023/04/19 09:27:12;;;;;;;;;;;;;;;15.68;70.77;98446.06;4467551;32;20002;-65
2023/04/19 09:29:39;;;;;;;;;;;;;;;15.84;72.31;98447.81;4463420;32;20003;-65
2023/04/19 09:32:09;;;;;;;;;;;;;;;15.60;72.71;98441.69;4465431;32;20008;-66
2023/04/19 09:34:36;;;;;;;;;;;;;;;15.41;75.59;98441.16;4462391;32;20007;-64
2023/04/19 09:37:10;;;;;;;;;;;;;;;15.49;71.44;98439.44;4462726;32;19980;-65
2023/04/19 09:39:58;;;;;;;;;;;;;;;15.34;74.48;98434.94;4462879;32;20017;-65
2023/04/19 09:42:44;;;;;;;;;;;;;;;15.30;69.27;98438.13;4465950;32;20047;-65
2023/04/19 09:45:40;;;;;;;;;;;;;;;15.17;68.09;98436.03;4464619;32;20000;-66
2023/04/19 09:48:07;;;;;;;;;;;;;;;15.29;71.81;98437.31;4467443;32;19996;-66
2023/04/19 09:50:36;;;;;;;;;;;;;;;15.58;69.55;98438.41;4466467;32;19980;-67
2023/04/19 09:53:20;;;;;;;;;;;;;;;15.63;69.24;98435.25;4464535;32;20435;-65
2023/04/19 09:55:48;;;;;;;;;;;;;;;15.57;70.80;98436.75;4462619;32;20007;-68
2023/04/19 09:58:28;;;;;;;;;;;;;;;15.74;70.99;98440.09;4466788;32;19999;-66
2023/04/19 10:01:17;;;;;;;;;;;;;;;15.74;69.28;98432.97;4466255;32;20006;-67
2023/04/19 10:03:47;;;;;;;;;;;;;;;15.89;67.51;98425.09;4467256;32;20449;-66
2023/04/19 10:06:16;;;;;;;;;;;;;;;15.98;66.79;98428.50;4468796;32;20065;-65
2023/04/19 10:09:04;;;;;;;;;;;;;;;16.19;66.67;98426.97;4470975;32;19990;-67
2023/04/19 10:11:37;;;;;;;;;;;;;;;16.12;67.99;98429.50;4477215;32;20087;-66
2023/04/19 10:14:06;;;;;;;;;;;;;;;16.02;66.95;98434.22;4476460;32;20689;-66
2023/04/19 10:16:34;;;;;;;;;;;;;;;15.61;70.58;98432.78;4477993;32;20026;-65
2023/04/19 10:19:03;;;;;;;;;;;;;;;15.51;71.75;98433.00;4482707;32;19995;-68
2023/04/19 10:21:32;;;;;;;;;;;;;;;15.79;74.08;98428.03;4478615;32;20052;-66
2023/04/19 10:23:59;;;;;;;;;;;;;;;15.88;69.41;98426.13;4468736;32;20021;-66
2023/04/19 10:26:27;;;;;;;;;;;;;;;15.91;69.49;98419.66;4472695;32;19976;-65
2023/04/19 10:28:56;;;;;;;;;;;;;;;16.00;72.81;98430.97;4468400;32;20002;-67
2023/04/19 10:31:24;;;;;;;;;;;;;;;15.66;70.07;98429.59;4470622;32;19987;-66
2023/04/19 10:33:53;;;;;;;;;;;;;;;15.95;72.38;98416.47;4477888;31;20002;-67
2023/04/19 10:36:21;;;;;;;;;;;;;;;16.27;71.30;98413.66;4478613;32;19980;-65
2023/04/19 10:38:54;;;;;;;;;;;;;;;16.51;71.00;98417.84;4477501;31;20052;-66
2023/04/19 10:41:21;;;;;;;;;;;;;;;16.71;66.39;98433.16;4458333;32;20439;-66
2023/04/19 10:43:55;;;;;;;;;;;;;;;16.38;68.90;98422.94;4470456;32;19980;-64
2023/04/19 10:46:27;;;;;;;;;;;;;;;16.12;69.44;98425.06;4461842;32;20011;-64
2023/04/19 10:49:02;;;;;;;;;;;;;;;15.89;68.58;98408.44;4476998;32;19980;-63
2023/04/19 10:51:34;;;;;;;;;;;;;;;15.94;68.42;98406.06;4465905;32;20039;-64
2023/04/19 10:54:05;;;;;;;;;;;;;;;16.17;69.90;98410.47;4468112;32;20074;-62
2023/04/19 10:56:32;;;;;;;;;;;;;;;15.94;70.99;98411.34;4466296;32;19984;-64
2023/04/19 10:59:00;;;;;;;;;;;;;;;15.87;66.65;98405.19;4466454;32;20462;-63
2023/04/19 11:01:32;;;;;;;;;;;;;;;16.44;68.13;98401.91;4475842;32;19994;-64
2023/04/19 11:03:59;;;;;;;;;;;;;;;16.78;62.50;98392.53;4469124;32;20361;-64
2023/04/19 11:06:27;;;;;;;;;;;;;;;17.13;65.16;98402.50;4475692;31;20003;-64
2023/04/19 11:08:54;;;;;;;;;;;;;;;17.64;65.84;98391.75;4472490;32;20021;-63
2023/04/19 11:11:24;;;;;;;;;;;;;;;17.61;62.84;98393.97;4476369;31;19995;-63
2023/04/19 11:13:54;;;;;;;;;;;;;;;17.20;61.60;98395.47;4464587;32;19997;-64
2023/04/19 11:16:25;;;;;;;;;;;;;;;17.04;60.62;98396.50;4470763;32;19987;-64
2023/04/19 11:19:17;;;;;;;;;;;;;;;16.67;60.21;98399.13;4466120;32;19987;-65
2023/04/19 11:21:47;;;;;;;;;;;;;;;16.74;62.32;98395.75;4463129;31;20039;-65
2023/04/19 11:24:17;;;;;;;;;;;;;;;17.29;61.76;98390.84;4462394;32;20041;-64
2023/04/19 11:26:46;;;;;;;;;;;;;;;17.49;59.69;98391.84;4462810;32;20047;-63
2023/04/19 11:29:13;;;;;;;;;;;;;;;17.76;62.96;98392.06;4465780;32;19988;-64
2023/04/19 11:31:45;;;;;;;;;;;;;;;18.04;58.26;98393.91;4472748;32;20360;-63
2023/04/19 11:34:13;;;;;;;;;;;;;;;18.03;60.23;98394.91;4465812;32;19991;-64
2023/04/19 11:36:49;;;;;;;;;;;;;;;17.89;60.10;98400.09;4469247;32;20330;-63
2023/04/19 11:39:17;;;;;;;;;;;;;;;17.14;62.69;98389.09;4465621;32;20385;-63
2023/04/19 11:41:46;;;;;;;;;;;;;;;16.98;62.51;98390.13;4475919;32;19991;-64
2023/04/19 11:44:18;;;;;;;;;;;;;;;17.11;63.73;98389.47;4465622;32;20019;-63
2023/04/19 11:46:56;;;;;;;;;;;;;;;17.34;65.27;98383.97;4468026;32;20032;-65
2023/04/19 11:49:27;;;;;;;;;;;;;;;17.58;65.36;98391.69;4467533;32;20395;-64
2023/04/19 11:51:56;;;;;;;;;;;;;;;16.89;67.52;98387.81;4468332;32;19987;-64
2023/04/19 11:54:24;;;;;;;;;;;;;;;16.95;68.81;98395.78;4467601;32;20044;-64
2023/04/19 11:56:56;;;;;;;;;;;;;;;17.09;66.90;98386.16;4465145;32;19994;-63
2023/04/19 11:59:24;;;;;;;;;;;;;;;17.00;66.28;98379.34;4464829;32;20671;-63
2023/04/19 12:01:51;;;;;;;;;;;;;;;17.45;66.96;98377.34;4467262;32;20063;-63
2023/04/19 12:04:19;;;;;;;;;;;;;;;17.59;66.17;98386.19;4473794;32;20349;-64
2023/04/19 12:06:55;;;;;;;;;;;;;;;17.55;64.49;98387.63;4473010;32;20062;-64
2023/04/19 12:09:22;;;;;;;;;;;;;;;17.54;61.95;98393.91;4462271;32;20020;-64
2023/04/19 12:11:50;;;;;;;;;;;;;;;17.11;62.87;98391.28;4470852;31;19994;-64
2023/04/19 12:14:21;;;;;;;;;;;;;;;16.89;62.93;98390.44;4470810;32;19979;-64
2023/04/19 12:17:08;;;;;;;;;;;;;;;16.90;63.56;98381.50;4471760;32;19995;-64
2023/04/19 12:19:37;;;;;;;;;;;;;;;16.78;62.85;98389.09;4471392;32;20001;-64
2023/04/19 12:22:08;;;;;;;;;;;;;;;16.56;61.94;98386.38;4481804;32;19981;-65
2023/04/19 12:24:36;;;;;;;;;;;;;;;16.58;64.14;98381.72;4468067;32;19994;-65
2023/04/19 12:27:03;;;;;;;;;;;;;;;16.67;63.00;98379.81;4477907;32;19992;-65
2023/04/19 12:29:32;;;;;;;;;;;;;;;17.15;62.32;98382.78;4473384;31;20043;-65
2023/04/19 12:32:00;;;;;;;;;;;;;;;17.05;62.60;98366.41;4469988;32;19973;-65
2023/04/19 12:34:27;;;;;;;;;;;;;;;17.06;61.81;98368.00;4483942;32;19988;-65
2023/04/19 12:36:55;;;;;;;;;;;;;;;17.28;62.19;98371.50;4479096;31;20419;-64
2023/04/19 12:39:22;;;;;;;;;;;;;;;17.42;61.65;98367.12;4474805;31;19977;-64
2023/04/19 12:41:50;;;;;;;;;;;;;;;17.39;59.78;98364.84;4470117;32;20295;-65
2023/04/19 12:44:17;;;;;;;;;;;;;;;17.28;58.15;98368.03;4480302;32;20391;-65
2023/04/19 12:46:44;;;;;;;;;;;;;;;17.43;61.51;98371.41;4473713;31;20322;-65
2023/04/19 12:49:12;;;;;;;;;;;;;;;17.52;58.17;98364.97;4471217;31;19984;-65
2023/04/19 12:51:41;;;;;;;;;;;;;;;17.43;57.94;98362.66;4474801;31;20016;-65
2023/04/19 12:54:09;;;;;;;;;;;;;;;17.31;58.75;98357.06;4473592;31;19975;-64
2023/04/19 12:56:36;;;;;;;;;;;;;;;17.11;59.50;98354.22;4472718;32;19983;-64
2023/04/19 12:59:04;;;;;;;;;;;;;;;17.00;58.30;98372.25;4478960;31;19995;-65